createdAt,value
2019-06-27T00:01:05.149Z,97735.78
2019-06-27T00:02:41.213Z,97747.78
2019-06-27T00:04:18.400Z,97774.23
2019-06-27T00:05:54.752Z,97804.99
2019-06-27T00:07:30.882Z,97828.21
2019-06-27T00:09:09.094Z,97842.97
2019-06-27T00:10:45.244Z,97864.19
2019-06-27T00:12:21.667Z,97873.75
2019-06-27T00:13:58.182Z,98024.86
2019-06-27T00:15:34.173Z,98046.69
2019-06-27T00:17:11.682Z,98067.89
2019-06-27T00:18:47.339Z,98085.59
2019-06-27T00:20:25.472Z,98096.51
2019-06-27T00:22:01.021Z,98079.91
2019-06-27T00:23:37.245Z,97906.07
2019-06-27T00:25:13.130Z,98011.19
2019-06-27T00:26:57.239Z,98028.27
2019-06-27T00:28:27.273Z,98050.23
2019-06-27T00:30:05.280Z,98055.78
2019-06-27T00:31:41.721Z,98041.63
2019-06-27T00:33:18.539Z,98018.59
2019-06-27T00:34:54.864Z,98014.27
2019-06-27T00:36:31.543Z,98015.34
2019-06-27T00:38:07.459Z,98009.63
2019-06-27T00:39:44.343Z,97986.14
2019-06-27T00:41:20.020Z,97916.71
2019-06-27T00:42:56.953Z,97953.87
2019-06-27T00:44:32.850Z,97959.09
2019-06-27T00:46:09.161Z,97954.05
2019-06-27T00:47:44.887Z,97949.13
2019-06-27T00:49:21.910Z,97949.11
2019-06-27T00:50:58.037Z,97950.50
2019-06-27T00:52:34.966Z,97954.66
2019-06-27T00:54:11.190Z,97947.26
2019-06-27T00:55:47.162Z,97945.56
2019-06-27T00:57:23.460Z,97941.75
2019-06-27T00:59:00.147Z,97943.87
2019-06-27T01:00:36.811Z,97941.12
2019-06-27T01:02:14.214Z,97944.17
2019-06-27T01:03:53.978Z,97935.58
2019-06-27T01:05:31.247Z,97933.41
2019-06-27T01:07:07.430Z,97933.89
2019-06-27T01:08:44.234Z,97926.97
2019-06-27T01:10:21.306Z,97922.38
2019-06-27T01:11:57.736Z,97927.87
2019-06-27T01:13:35.607Z,97926.03
2019-06-27T01:15:16.210Z,97926.33
2019-06-27T01:17:05.199Z,97922.80
2019-06-27T01:18:40.983Z,97927.70
2019-06-27T01:20:16.455Z,97928.61
2019-06-27T01:21:53.115Z,97929.06
2019-06-27T01:23:28.439Z,97923.08
2019-06-27T01:25:04.329Z,97925.99
2019-06-27T01:26:39.628Z,97925.97
2019-06-27T01:28:15.781Z,97932.11
2019-06-27T01:29:51.420Z,97936.80
2019-06-27T01:31:27.221Z,97929.74
2019-06-27T01:33:04.519Z,97932.82
2019-06-27T01:34:40.320Z,97933.56
2019-06-27T01:36:16.060Z,97938.61
2019-06-27T01:37:52.096Z,97937.52
2019-06-27T01:39:27.786Z,97938.58
2019-06-27T01:41:03.596Z,97942.39
2019-06-27T01:42:38.790Z,97933.95
2019-06-27T01:44:32.092Z,97934.25
2019-06-27T01:46:07.308Z,97938.70
2019-06-27T01:47:43.244Z,97938.52
2019-06-27T01:49:18.497Z,97928.98
2019-06-27T01:50:54.442Z,97934.34
2019-06-27T01:52:29.924Z,97935.84
2019-06-27T01:54:05.715Z,97935.84
2019-06-27T01:55:40.930Z,97935.23
2019-06-27T01:57:16.983Z,97933.17
2019-06-27T01:58:52.686Z,97931.95
2019-06-27T02:00:28.702Z,97936.25
2019-06-27T02:02:04.107Z,97930.91
2019-06-27T02:03:40.333Z,97932.52
2019-06-27T02:05:15.664Z,97939.70
2019-06-27T02:06:51.971Z,97938.32
2019-06-27T02:08:27.871Z,97942.13
2019-06-27T02:10:04.996Z,97941.08
2019-06-27T02:11:41.181Z,97940.80
2019-06-27T02:13:16.985Z,97941.84
2019-06-27T02:14:52.703Z,97943.50
2019-06-27T02:16:28.865Z,97942.73
2019-06-27T02:18:04.469Z,97942.73
2019-06-27T02:19:40.237Z,97938.23
2019-06-27T02:21:15.485Z,97939.89
2019-06-27T02:22:51.479Z,97933.31
2019-06-27T02:24:26.627Z,97935.14
2019-06-27T02:26:02.476Z,97929.58
2019-06-27T02:27:37.695Z,97931.57
2019-06-27T02:29:13.875Z,97937.97
2019-06-27T02:30:49.534Z,97935.83
2019-06-27T02:32:25.436Z,97935.52
2019-06-27T02:34:06.332Z,97937.80
2019-06-27T02:35:39.304Z,97939.89
2019-06-27T02:37:14.524Z,97936.70
2019-06-27T02:38:52.749Z,97935.77
2019-06-27T02:40:28.308Z,97938.36
2019-06-27T02:42:04.026Z,97937.59
2019-06-27T02:43:39.788Z,97939.88
2019-06-27T02:45:18.933Z,97940.93
2019-06-27T02:46:55.758Z,97946.28
2019-06-27T02:48:31.932Z,97949.13
2019-06-27T02:50:07.393Z,97948.52
2019-06-27T02:51:43.326Z,97951.88
2019-06-27T02:53:18.517Z,97945.27
2019-06-27T02:54:54.588Z,97954.47
2019-06-27T02:56:30.080Z,97955.19
2019-06-27T02:58:27.982Z,97958.87
2019-06-27T02:59:42.771Z,97955.66
2019-06-27T03:01:18.804Z,97958.11
2019-06-27T03:02:54.790Z,97958.71
2019-06-27T03:04:30.964Z,97959.19
2019-06-27T03:06:06.371Z,97961.33
2019-06-27T03:07:42.809Z,97961.94
2019-06-27T03:09:18.050Z,97963.27
2019-06-27T03:10:54.244Z,97974.01
2019-06-27T03:12:29.696Z,97976.88
2019-06-27T03:14:05.795Z,97973.19
2019-06-27T03:15:41.799Z,97979.19
2019-06-27T03:17:17.487Z,97972.25
2019-06-27T03:18:52.958Z,97980.19
2019-06-27T03:20:28.694Z,97980.79
2019-06-27T03:22:05.833Z,97976.96
2019-06-27T03:23:41.755Z,97977.23
2019-06-27T03:25:18.631Z,97979.05
2019-06-27T03:26:54.737Z,97976.63
2019-06-27T03:28:49.869Z,97976.03
2019-06-27T03:30:08.735Z,97981.37
2019-06-27T03:31:44.168Z,97983.63
2019-06-27T03:33:20.390Z,97989.19
2019-06-27T03:34:56.464Z,97986.05
2019-06-27T03:36:32.620Z,97978.56
2019-06-27T03:38:07.984Z,97981.15
2019-06-27T03:39:44.860Z,97986.63
2019-06-27T03:41:20.279Z,97990.32
2019-06-27T03:42:56.145Z,97985.70
2019-06-27T03:44:31.715Z,97993.95
2019-06-27T03:46:07.856Z,97985.86
2019-06-27T03:47:43.581Z,97986.30
2019-06-27T03:49:19.894Z,97988.89
2019-06-27T03:50:56.446Z,97990.27
2019-06-27T03:52:32.721Z,97987.07
2019-06-27T03:54:07.808Z,98003.86
2019-06-27T03:55:44.465Z,97998.19
2019-06-27T03:57:19.857Z,98000.34
2019-06-27T03:59:11.474Z,97995.55
2019-06-27T04:00:36.048Z,98006.39
2019-06-27T04:02:12.717Z,98008.38
2019-06-27T04:03:48.931Z,98005.31
2019-06-27T04:05:25.119Z,98010.22
2019-06-27T04:07:00.632Z,98012.50
2019-06-27T04:08:36.484Z,98022.14
2019-06-27T04:10:16.847Z,98016.60
2019-06-27T04:11:49.293Z,98014.89
2019-06-27T04:13:25.315Z,98025.47
2019-06-27T04:15:01.127Z,98027.11
2019-06-27T04:16:39.481Z,98025.64
2019-06-27T04:18:15.255Z,98033.66
2019-06-27T04:19:50.438Z,98028.77
2019-06-27T04:21:26.508Z,98027.72
2019-06-27T04:23:01.707Z,98021.01
2019-06-27T04:24:37.519Z,98028.05
2019-06-27T04:26:12.679Z,98034.00
2019-06-27T04:27:48.670Z,98029.87
2019-06-27T04:29:33.561Z,98023.42
2019-06-27T04:31:02.368Z,98025.91
2019-06-27T04:32:37.913Z,98033.23
2019-06-27T04:34:13.619Z,98039.61
2019-06-27T04:35:49.216Z,98044.73
2019-06-27T04:37:25.399Z,98037.42
2019-06-27T04:39:00.614Z,98037.42
2019-06-27T04:40:36.446Z,98030.64
2019-06-27T04:42:11.601Z,98033.83
2019-06-27T04:43:47.388Z,98036.98
2019-06-27T04:45:23.105Z,98038.89
2019-06-27T04:47:01.403Z,98036.04
2019-06-27T04:48:36.649Z,98042.79
2019-06-27T04:50:12.404Z,98046.38
2019-06-27T04:51:47.521Z,98043.53
2019-06-27T04:53:24.113Z,98053.87
2019-06-27T04:55:03.066Z,98053.87
2019-06-27T04:56:36.638Z,98051.95
2019-06-27T04:58:11.728Z,98055.31
2019-06-27T04:59:53.795Z,98051.89
2019-06-27T05:01:24.434Z,98057.39
2019-06-27T05:03:00.271Z,98055.31
2019-06-27T05:04:35.481Z,98069.01
2019-06-27T05:06:11.441Z,98058.17
2019-06-27T05:07:46.934Z,98057.63
2019-06-27T05:09:23.165Z,98058.60
2019-06-27T05:10:58.292Z,98051.98
2019-06-27T05:12:34.446Z,98056.53
2019-06-27T05:14:09.521Z,98065.85
2019-06-27T05:15:45.771Z,98063.13
2019-06-27T05:17:22.292Z,98064.06
2019-06-27T05:18:58.162Z,98065.87
2019-06-27T05:20:34.111Z,98072.87
2019-06-27T05:22:10.296Z,98065.63
2019-06-27T05:23:45.724Z,98066.00
2019-06-27T05:25:21.541Z,98075.95
2019-06-27T05:26:56.791Z,98063.80
2019-06-27T05:28:32.609Z,98065.27
2019-06-27T05:30:10.284Z,98068.82
2019-06-27T05:31:45.886Z,98067.50
2019-06-27T05:33:21.983Z,98065.52
2019-06-27T05:34:57.985Z,98068.94
2019-06-27T05:36:33.461Z,98066.68
2019-06-27T05:38:09.876Z,98063.95
2019-06-27T05:39:46.961Z,98070.69
2019-06-27T05:41:23.257Z,98061.02
2019-06-27T05:42:58.724Z,98065.48
2019-06-27T05:44:34.572Z,98055.25
2019-06-27T05:46:10.140Z,98051.53
2019-06-27T05:47:46.078Z,98050.17
2019-06-27T05:49:22.633Z,98052.05
2019-06-27T05:51:00.081Z,98039.94
2019-06-27T05:52:35.638Z,98041.48
2019-06-27T05:54:12.204Z,98038.34
2019-06-27T05:55:47.588Z,98039.02
2019-06-27T05:57:23.886Z,98035.03
2019-06-27T05:58:59.186Z,98033.60
2019-06-27T06:00:36.153Z,98036.09
2019-06-27T06:02:11.980Z,98039.02
2019-06-27T06:03:48.373Z,98031.80
2019-06-27T06:05:25.536Z,98036.72
2019-06-27T06:07:01.513Z,98031.41
2019-06-27T06:08:37.244Z,98038.03
2019-06-27T06:10:13.377Z,98037.59
2019-06-27T06:11:49.001Z,98038.84
2019-06-27T06:13:24.931Z,98040.23
2019-06-27T06:15:01.194Z,98033.33
2019-06-27T06:16:37.550Z,98035.30
2019-06-27T06:18:13.370Z,98034.48
2019-06-27T06:19:49.227Z,98034.13
2019-06-27T06:21:25.146Z,98039.52
2019-06-27T06:23:02.867Z,98039.67
2019-06-27T06:24:38.752Z,98047.63
2019-06-27T06:26:20.638Z,98045.81
2019-06-27T06:27:59.983Z,98049.55
2019-06-27T06:29:36.155Z,98054.16
2019-06-27T06:31:13.327Z,98053.09
2019-06-27T06:32:51.208Z,98054.14
2019-06-27T06:34:32.712Z,98058.65
2019-06-27T06:36:10.029Z,98060.04
2019-06-27T06:37:48.163Z,98058.77
2019-06-27T06:39:35.423Z,98066.29
2019-06-27T06:41:13.071Z,98070.50
2019-06-27T06:42:50.945Z,98078.25
2019-06-27T06:44:26.886Z,98076.95
2019-06-27T06:46:02.785Z,98079.52
2019-06-27T06:47:39.333Z,98082.17
2019-06-27T06:49:16.996Z,98074.32
2019-06-27T06:50:53.955Z,98080.63
2019-06-27T06:52:30.229Z,98090.63
2019-06-27T06:54:06.757Z,98087.26
2019-06-27T06:55:43.039Z,98090.49
2019-06-27T06:57:20.442Z,98082.16
2019-06-27T06:58:56.889Z,98077.11
2019-06-27T07:00:38.119Z,98083.85
2019-06-27T07:02:16.717Z,98084.02
2019-06-27T07:03:53.775Z,98082.72
2019-06-27T07:05:31.034Z,98086.92
2019-06-27T07:07:07.546Z,98091.02
2019-06-27T07:08:43.787Z,98092.84
2019-06-27T07:10:20.408Z,98101.20
2019-06-27T07:11:56.408Z,98230.53
2019-06-27T07:13:32.655Z,98469.65
2019-06-27T07:15:09.173Z,98519.12
2019-06-27T07:16:46.855Z,98358.66
2019-06-27T07:18:23.330Z,97981.70
2019-06-27T07:19:59.142Z,97924.15
2019-06-27T07:21:35.100Z,97924.20
2019-06-27T07:23:11.442Z,97920.33
2019-06-27T07:24:46.817Z,97921.53
2019-06-27T07:26:22.975Z,97915.64
2019-06-27T07:27:58.533Z,97909.70
2019-06-27T07:29:35.044Z,97906.64
2019-06-27T07:31:17.817Z,97897.41
2019-06-27T07:32:49.206Z,97890.26
2019-06-27T07:34:24.905Z,97888.91
2019-06-27T07:36:01.344Z,97887.91
2019-06-27T07:37:36.827Z,97883.34
2019-06-27T07:39:12.784Z,97884.94
2019-06-27T07:40:48.005Z,97875.27
2019-06-27T07:42:24.358Z,97875.37
2019-06-27T07:44:01.427Z,97870.00
2019-06-27T07:45:38.009Z,97872.19
2019-06-27T07:47:13.316Z,97877.38
2019-06-27T07:48:49.320Z,97865.38
2019-06-27T07:50:24.846Z,97861.03
2019-06-27T07:52:00.836Z,97863.63
2019-06-27T07:53:36.047Z,97868.63
2019-06-27T07:55:11.846Z,97873.20
2019-06-27T07:56:47.138Z,97868.56
2019-06-27T07:58:23.199Z,97869.36
2019-06-27T07:59:58.387Z,97872.02
2019-06-27T08:01:35.918Z,97875.45
2019-06-27T08:03:11.403Z,97877.73
2019-06-27T08:04:48.299Z,97869.48
2019-06-27T08:06:26.721Z,97860.13
2019-06-27T08:08:02.863Z,97875.98
2019-06-27T08:09:38.077Z,97873.02
2019-06-27T08:11:16.343Z,97877.11
2019-06-27T08:12:51.992Z,97878.56
2019-06-27T08:14:27.851Z,97879.05
2019-06-27T08:16:03.558Z,97877.80
2019-06-27T08:17:39.646Z,97871.41
2019-06-27T08:19:17.065Z,97870.80
2019-06-27T08:20:53.034Z,97871.17
2019-06-27T08:22:28.718Z,97864.75
2019-06-27T08:24:07.605Z,97861.77
2019-06-27T08:25:43.872Z,97861.45
2019-06-27T08:27:22.697Z,97853.45
2019-06-27T08:28:58.903Z,97855.61
2019-06-27T08:30:37.508Z,97857.75
2019-06-27T08:32:14.092Z,97853.38
2019-06-27T08:33:51.731Z,97853.67
2019-06-27T08:35:28.289Z,97849.80
2019-06-27T08:37:04.379Z,97843.22
2019-06-27T08:38:39.660Z,97846.47
2019-06-27T08:40:16.303Z,97857.33
2019-06-27T08:41:52.449Z,97852.42
2019-06-27T08:43:30.317Z,97853.65
2019-06-27T08:45:09.531Z,97857.70
2019-06-27T08:46:45.826Z,97856.37
2019-06-27T08:48:25.548Z,97855.59
2019-06-27T08:50:03.237Z,97845.80
2019-06-27T08:51:39.047Z,97849.10
2019-06-27T08:53:17.220Z,97856.27
2019-06-27T08:54:53.827Z,97858.74
2019-06-27T08:56:30.198Z,97862.81
2019-06-27T08:58:07.960Z,97864.05
2019-06-27T08:59:45.719Z,97864.41
2019-06-27T09:01:21.529Z,97852.58
2019-06-27T09:02:57.867Z,97885.45
2019-06-27T09:04:33.424Z,97890.16
2019-06-27T09:06:12.403Z,97881.97
2019-06-27T09:07:48.590Z,97883.34
2019-06-27T09:09:25.936Z,97878.30
2019-06-27T09:11:02.328Z,97880.17
2019-06-27T09:12:38.243Z,97872.09
2019-06-27T09:14:14.149Z,97875.35
2019-06-27T09:15:50.885Z,97875.78
2019-06-27T09:17:28.206Z,97889.58
2019-06-27T09:19:04.320Z,97886.80
2019-06-27T09:20:40.263Z,97898.23
2019-06-27T09:22:16.955Z,97897.47
2019-06-27T09:23:52.698Z,97889.86
2019-06-27T09:25:30.794Z,97897.54
2019-06-27T09:27:09.303Z,97905.84
2019-06-27T09:28:46.535Z,97903.97
2019-06-27T09:30:24.340Z,97908.12
2019-06-27T09:32:00.570Z,97917.02
2019-06-27T09:33:36.890Z,97911.55
2019-06-27T09:35:16.467Z,97908.38
2019-06-27T09:36:52.047Z,97910.17
2019-06-27T09:38:29.219Z,97920.57
2019-06-27T09:40:08.849Z,97913.19
2019-06-27T09:41:45.773Z,97912.75
2019-06-27T09:43:22.411Z,97918.55
2019-06-27T09:45:00.509Z,97914.34
2019-06-27T09:46:35.915Z,97913.79
2019-06-27T09:48:13.521Z,97905.63
2019-06-27T09:49:50.291Z,97905.87
2019-06-27T09:51:28.167Z,97903.98
2019-06-27T09:53:04.328Z,97906.55
2019-06-27T09:54:42.229Z,97902.19
2019-06-27T09:56:19.609Z,97903.18
2019-06-27T09:57:59.686Z,97909.08
2019-06-27T09:59:36.054Z,97899.59
2019-06-27T10:01:12.997Z,97895.57
2019-06-27T10:02:48.965Z,97905.59
2019-06-27T10:04:25.229Z,97902.44
2019-06-27T10:06:02.504Z,97898.18
2019-06-27T10:07:39.299Z,97898.52
2019-06-27T10:09:16.089Z,97901.68
2019-06-27T10:10:53.276Z,97894.34
2019-06-27T10:12:41.653Z,97899.84
2019-06-27T10:14:10.691Z,97894.89
2019-06-27T10:15:46.563Z,97895.72
2019-06-27T10:17:32.326Z,97891.22
2019-06-27T10:19:10.973Z,97891.22
2019-06-27T10:20:50.685Z,97890.80
2019-06-27T10:22:28.957Z,97892.56
2019-06-27T10:24:05.957Z,97887.59
2019-06-27T10:25:42.816Z,97894.02
2019-06-27T10:27:19.284Z,97896.16
2019-06-27T10:28:55.903Z,97886.55
2019-06-27T10:30:31.803Z,97892.18
2019-06-27T10:32:08.455Z,97892.17
2019-06-27T10:33:44.164Z,97889.08
2019-06-27T10:35:22.794Z,97893.36
2019-06-27T10:36:58.911Z,97892.17
2019-06-27T10:38:36.108Z,97897.85
2019-06-27T10:40:19.573Z,97893.16
2019-06-27T10:41:57.738Z,97893.03
2019-06-27T10:43:34.498Z,97890.19
2019-06-27T10:45:11.496Z,97890.46
2019-06-27T10:46:48.918Z,97896.97
2019-06-27T10:48:31.146Z,97891.96
2019-06-27T10:50:09.059Z,97887.63
2019-06-27T10:51:45.860Z,97882.27
2019-06-27T10:53:21.471Z,97882.01
2019-06-27T10:54:57.737Z,97882.55
2019-06-27T10:56:38.799Z,97885.92
2019-06-27T10:58:13.150Z,97883.91
2019-06-27T10:59:51.030Z,97883.19
2019-06-27T11:01:27.675Z,97879.60
2019-06-27T11:03:15.009Z,97888.64
2019-06-27T11:04:42.161Z,97877.98
2019-06-27T11:06:18.773Z,97877.11
2019-06-27T11:07:59.478Z,97875.60
2019-06-27T11:09:38.815Z,97881.70
2019-06-27T11:11:14.390Z,97880.74
2019-06-27T11:12:50.827Z,97879.16
2019-06-27T11:14:29.030Z,97880.69
2019-06-27T11:16:06.588Z,97874.72
2019-06-27T11:17:43.251Z,97873.65
2019-06-27T11:19:19.737Z,97878.24
2019-06-27T11:20:56.748Z,97873.13
2019-06-27T11:22:33.746Z,97871.47
2019-06-27T11:24:11.232Z,97868.16
2019-06-27T11:25:48.833Z,97874.59
2019-06-27T11:27:27.422Z,97868.59
2019-06-27T11:29:07.330Z,97867.44
2019-06-27T11:30:45.415Z,97859.91
2019-06-27T11:32:22.703Z,97866.41
2019-06-27T11:33:59.782Z,97868.59
2019-06-27T11:35:38.158Z,97866.23
2019-06-27T11:37:17.395Z,97862.78
2019-06-27T11:38:57.686Z,97867.59
2019-06-27T11:40:35.565Z,97857.96
2019-06-27T11:42:13.936Z,97862.59
2019-06-27T11:43:51.681Z,97867.09
2019-06-27T11:45:29.641Z,97863.12
2019-06-27T11:47:07.324Z,97866.05
2019-06-27T11:48:44.523Z,97850.59
2019-06-27T11:50:21.253Z,97857.62
2019-06-27T11:51:59.237Z,97861.26
2019-06-27T11:53:36.024Z,97847.09
2019-06-27T11:55:14.652Z,97851.52
2019-06-27T11:56:52.178Z,97850.77
2019-06-27T11:58:32.635Z,97858.61
2019-06-27T12:00:18.752Z,97859.06
2019-06-27T12:01:57.258Z,97848.16
2019-06-27T12:03:48.760Z,97849.94
2019-06-27T12:05:15.314Z,97859.62
2019-06-27T12:06:54.882Z,97861.75
2019-06-27T12:08:32.575Z,97858.09
2019-06-27T12:10:09.582Z,97857.84
2019-06-27T12:11:46.959Z,97857.61
2019-06-27T12:13:24.349Z,97848.39
2019-06-27T12:15:08.203Z,97856.24
2019-06-27T12:16:47.745Z,97842.99
2019-06-27T12:18:29.588Z,97855.56
2019-06-27T12:20:10.257Z,97861.93
2019-06-27T12:21:51.086Z,97861.67
2019-06-27T12:23:30.347Z,97857.04
2019-06-27T12:25:09.056Z,97862.46
2019-06-27T12:26:47.036Z,97865.23
2019-06-27T12:28:24.043Z,97855.25
2019-06-27T12:30:00.489Z,97858.34
2019-06-27T12:31:36.207Z,97845.14
2019-06-27T12:33:15.013Z,97847.89
2019-06-27T12:34:52.429Z,97848.08
2019-06-27T12:36:31.811Z,97845.55
2019-06-27T12:38:09.674Z,97844.86
2019-06-27T12:39:48.857Z,97847.44
2019-06-27T12:41:25.870Z,97848.31
2019-06-27T12:43:06.769Z,97847.81
2019-06-27T12:44:46.773Z,97851.99
2019-06-27T12:46:24.375Z,97839.56
2019-06-27T12:48:06.888Z,97843.67
2019-06-27T12:50:00.819Z,97839.53
2019-06-27T12:51:22.371Z,97845.42
2019-06-27T12:52:59.411Z,97850.52
2019-06-27T12:54:38.775Z,97838.53
2019-06-27T12:56:18.760Z,97845.70
2019-06-27T12:57:58.241Z,97846.45
2019-06-27T12:59:35.128Z,97842.68
2019-06-27T13:01:15.728Z,97838.28
2019-06-27T13:02:52.849Z,97836.26
2019-06-27T13:04:31.818Z,97844.92
2019-06-27T13:06:07.670Z,97842.49
2019-06-27T13:07:45.707Z,97842.30
2019-06-27T13:09:21.766Z,97841.58
2019-06-27T13:11:00.953Z,97839.07
2019-06-27T13:12:37.091Z,97838.37
2019-06-27T13:14:16.012Z,97833.38
2019-06-27T13:15:53.819Z,97827.00
2019-06-27T13:17:32.649Z,97825.17
2019-06-27T13:19:12.175Z,97821.26
2019-06-27T13:20:57.655Z,97819.02
2019-06-27T13:22:28.588Z,97822.13
2019-06-27T13:24:10.522Z,97823.06
2019-06-27T13:25:52.362Z,97827.77
2019-06-27T13:27:30.204Z,97825.08
2019-06-27T13:29:06.733Z,97828.87
2019-06-27T13:30:43.874Z,97820.45
2019-06-27T13:32:20.389Z,97828.39
2019-06-27T13:34:00.904Z,97824.11
2019-06-27T13:35:37.226Z,97824.68
2019-06-27T13:37:13.130Z,97819.41
2019-06-27T13:38:49.942Z,97825.29
2019-06-27T13:40:28.021Z,97824.28
2019-06-27T13:42:06.538Z,97813.42
2019-06-27T13:43:51.433Z,97816.28
2019-06-27T13:45:30.618Z,97813.01
2019-06-27T13:47:08.162Z,97818.59
2019-06-27T13:48:44.288Z,97815.61
2019-06-27T13:50:22.714Z,97814.20
2019-06-27T13:51:59.211Z,97813.30
2019-06-27T13:53:40.465Z,97810.27
2019-06-27T13:55:23.587Z,97805.40
2019-06-27T13:56:57.100Z,97811.88
2019-06-27T13:58:34.898Z,97813.19
2019-06-27T14:00:17.999Z,97807.47
2019-06-27T14:01:54.093Z,97800.22
2019-06-27T14:03:44.862Z,97796.42
2019-06-27T14:05:09.717Z,97803.20
2019-06-27T14:06:49.431Z,97793.37
2019-06-27T14:08:28.891Z,97802.25
2019-06-27T14:10:05.497Z,97796.18
2019-06-27T14:11:42.533Z,97797.41
2019-06-27T14:13:22.377Z,97796.20
2019-06-27T14:15:00.556Z,97786.16
2019-06-27T14:16:36.433Z,97789.05
2019-06-27T14:18:25.296Z,97790.16
2019-06-27T14:20:02.747Z,97784.38
2019-06-27T14:21:39.341Z,97783.94
2019-06-27T14:23:20.086Z,97793.69
2019-06-27T14:24:56.260Z,97788.20
2019-06-27T14:26:37.221Z,97791.48
2019-06-27T14:28:18.343Z,97794.06
2019-06-27T14:30:05.894Z,97790.97
2019-06-27T14:31:45.940Z,97790.94
2019-06-27T14:33:22.231Z,97793.17
2019-06-27T14:35:14.681Z,97789.84
2019-06-27T14:36:41.201Z,97788.29
2019-06-27T14:38:22.609Z,97788.17
2019-06-27T14:39:59.691Z,97788.81
2019-06-27T14:41:46.188Z,97794.67
2019-06-27T14:43:23.923Z,97792.05
2019-06-27T14:45:00.435Z,97793.59
2019-06-27T14:46:37.461Z,97788.39
2019-06-27T14:48:16.366Z,97784.42
2019-06-27T14:49:54.075Z,97789.17
2019-06-27T14:51:31.716Z,97778.75
2019-06-27T14:53:08.325Z,97789.99
2019-06-27T14:54:47.357Z,97771.86
2019-06-27T14:56:24.868Z,97786.36
2019-06-27T14:58:02.108Z,97782.97
2019-06-27T14:59:41.356Z,97785.73
2019-06-27T15:01:17.796Z,97779.77
2019-06-27T15:02:55.988Z,97779.38
2019-06-27T15:04:33.575Z,97780.47
2019-06-27T15:06:12.498Z,97780.47
2019-06-27T15:07:50.654Z,97784.57
2019-06-27T15:09:29.223Z,97790.78
2019-06-27T15:11:05.767Z,97788.37
2019-06-27T15:12:56.466Z,97785.63
2019-06-27T15:14:23.611Z,97780.69
2019-06-27T15:16:11.962Z,97782.66
2019-06-27T15:17:45.305Z,97777.64
2019-06-27T15:19:28.270Z,97780.98
2019-06-27T15:21:07.523Z,97777.01
2019-06-27T15:22:46.570Z,97777.81
2019-06-27T15:24:26.104Z,97777.37
2019-06-27T15:26:03.410Z,97773.80
2019-06-27T15:27:43.070Z,97774.52
2019-06-27T15:29:23.965Z,97776.36
2019-06-27T15:31:00.985Z,97774.56
2019-06-27T15:32:38.976Z,97774.20
2019-06-27T15:34:20.114Z,97775.06
2019-06-27T15:36:04.019Z,97773.36
2019-06-27T15:37:41.476Z,97772.17
2019-06-27T15:39:22.554Z,97766.48
2019-06-27T15:41:04.522Z,97766.78
2019-06-27T15:42:45.059Z,97774.33
2019-06-27T15:44:24.969Z,97766.20
2019-06-27T15:46:01.707Z,97761.40
2019-06-27T15:47:40.094Z,97764.73
2019-06-27T15:49:16.118Z,97772.64
2019-06-27T15:50:56.472Z,97776.47
2019-06-27T15:52:34.499Z,97765.56
2019-06-27T15:54:13.902Z,97777.66
2019-06-27T15:55:50.673Z,97774.80
2019-06-27T15:57:27.916Z,97773.94
2019-06-27T15:59:08.006Z,97769.36
2019-06-27T16:00:45.420Z,97766.69
2019-06-27T16:02:23.902Z,97763.09
2019-06-27T16:04:01.922Z,97768.69
2019-06-27T16:05:42.698Z,97767.78
2019-06-27T16:07:23.382Z,97761.19
2019-06-27T16:09:01.191Z,97760.96
2019-06-27T16:10:37.671Z,97757.79
2019-06-27T16:12:14.352Z,97756.88
2019-06-27T16:13:53.338Z,97762.31
2019-06-27T16:15:33.862Z,97760.72
2019-06-27T16:17:12.192Z,97761.78
2019-06-27T16:19:00.824Z,97755.86
2019-06-27T16:20:38.422Z,97750.13
2019-06-27T16:22:16.342Z,97746.57
2019-06-27T16:24:00.235Z,97745.52
2019-06-27T16:25:39.592Z,97746.75
2019-06-27T16:27:16.031Z,97745.64
2019-06-27T16:28:52.766Z,97739.23
2019-06-27T16:30:31.203Z,97736.44
2019-06-27T16:32:07.302Z,97737.20
2019-06-27T16:33:48.455Z,97740.06
2019-06-27T16:35:24.060Z,97733.09
2019-06-27T16:37:04.573Z,97737.74
2019-06-27T16:38:40.221Z,97745.67
2019-06-27T16:40:19.404Z,97742.67
2019-06-27T16:41:55.224Z,97737.55
2019-06-27T16:43:33.096Z,97742.76
2019-06-27T16:45:10.354Z,97737.51
2019-06-27T16:46:49.379Z,97743.76
2019-06-27T16:48:27.604Z,97743.75
2019-06-27T16:50:05.630Z,97745.55
2019-06-27T16:51:42.626Z,97744.16
2019-06-27T16:53:19.743Z,97745.86
2019-06-27T16:54:58.139Z,97747.91
2019-06-27T16:56:35.410Z,97750.64
2019-06-27T16:58:17.340Z,97753.23
2019-06-27T16:59:56.757Z,97750.06
2019-06-27T17:01:35.646Z,97751.66
2019-06-27T17:03:11.647Z,97761.13
2019-06-27T17:04:47.591Z,97749.05
2019-06-27T17:06:37.639Z,97749.91
2019-06-27T17:08:04.559Z,97748.03
2019-06-27T17:09:40.497Z,97749.38
2019-06-27T17:11:18.427Z,97748.09
2019-06-27T17:12:54.875Z,97751.02
2019-06-27T17:14:30.560Z,97749.88
2019-06-27T17:16:06.786Z,97749.70
2019-06-27T17:17:42.878Z,97750.38
2019-06-27T17:19:19.473Z,97757.22
2019-06-27T17:20:54.921Z,97762.74
2019-06-27T17:22:31.275Z,97755.56
2019-06-27T17:24:06.853Z,97756.05
2019-06-27T17:25:43.040Z,97753.06
2019-06-27T17:27:21.998Z,97749.19
2019-06-27T17:28:57.966Z,97753.14
2019-06-27T17:30:36.129Z,97750.60
2019-06-27T17:32:15.488Z,97750.61
2019-06-27T17:33:50.980Z,97748.31
2019-06-27T17:35:28.613Z,97749.14
2019-06-27T17:37:05.586Z,97754.22
2019-06-27T17:38:44.520Z,97751.67
2019-06-27T17:40:20.966Z,97742.70
2019-06-27T17:41:59.003Z,97748.52
2019-06-27T17:43:36.974Z,97746.16
2019-06-27T17:45:16.498Z,97747.98
2019-06-27T17:46:52.997Z,97747.11
2019-06-27T17:48:29.818Z,97749.70
2019-06-27T17:50:06.179Z,97752.52
2019-06-27T17:51:44.730Z,97752.52
2019-06-27T17:53:21.313Z,97749.08
2019-06-27T17:55:00.473Z,97750.73
2019-06-27T17:56:39.546Z,97749.53
2019-06-27T17:58:16.599Z,97755.88
2019-06-27T17:59:53.587Z,97743.67
2019-06-27T18:01:32.163Z,97754.90
2019-06-27T18:03:09.638Z,97750.53
2019-06-27T18:04:47.725Z,97755.39
2019-06-27T18:06:28.752Z,97751.87
2019-06-27T18:08:07.587Z,97745.98
2019-06-27T18:09:45.086Z,97752.88
2019-06-27T18:11:26.240Z,97752.13
2019-06-27T18:13:10.062Z,97749.45
2019-06-27T18:14:46.754Z,97746.27
2019-06-27T18:16:23.514Z,97746.66
2019-06-27T18:18:00.504Z,97741.67
2019-06-27T18:19:41.490Z,97754.16
2019-06-27T18:21:30.727Z,97749.69
2019-06-27T18:23:09.626Z,97745.36
2019-06-27T18:24:46.203Z,97740.41
2019-06-27T18:26:22.756Z,97742.95
2019-06-27T18:28:00.105Z,97738.37
2019-06-27T18:29:39.252Z,97744.09
2019-06-27T18:31:15.560Z,97741.19
2019-06-27T18:32:53.615Z,97736.63
2019-06-27T18:34:32.313Z,97735.48
2019-06-27T18:36:09.277Z,97733.05
2019-06-27T18:37:50.761Z,97732.29
2019-06-27T18:39:28.639Z,97730.41
2019-06-27T18:41:04.841Z,97724.19
2019-06-27T18:42:49.351Z,97727.60
2019-06-27T18:44:28.429Z,97731.41
2019-06-27T18:46:07.211Z,97727.09
2019-06-27T18:47:43.121Z,97722.52
2019-06-27T18:49:19.138Z,97731.07
2019-06-27T18:50:58.070Z,97724.52
2019-06-27T18:52:34.194Z,97726.00
2019-06-27T18:54:14.796Z,97724.08
2019-06-27T18:55:51.209Z,97730.16
2019-06-27T18:57:29.202Z,97734.70
2019-06-27T18:59:09.250Z,97731.55
2019-06-27T19:00:50.016Z,97730.48
2019-06-27T19:02:25.394Z,97730.19
2019-06-27T19:04:01.672Z,97727.72